KMKY

Marco Island Airport

Marco Island, Florida, USA
METAR KMKY 190256Z AUTO 01005KT 10SM CLR 09/03 A3033 RMK AO2 SLP270 T00890028 51014
Observed Flight Rules
Jan-19 @ 02:56 UTC (47 minutes ago) Visual Flight Rules
Wind Visibility Clouds
10° at 5 knots 10 miles
  • Clear skies
Temperatures Readings
Current 9°C / 48°F
Dewpoint 3°C / 37°F
Humidity 66%
Altimeter 30.33" Hg
Pressure 1027 hPa
Elevation 2
METAR KMKY 190256Z AUTO 01005KT 10SM CLR 09/03 A3033 RMK AO2 SLP270 T00890028 51014
Observed Flight Rules
Jan-19 @ 02:56 UTC
(47 minutes ago)
VFR
Wind Visibility
10° at 5 knots 10 miles
Clouds
  • Clear skies
Temperature Dewpoint
9°C / 48°F 3°C / 37°F
Humidity Altimeter Pressure
66% 30.33" Hg 1027 hPa